sensor_id;sensor_type;location;lat;lon;timestamp;P1;durP1;ratioP1;P2;durP2;ratioP2
57231;SDS011;43488;46.934;8.276;2023-08-06T00:01:19;787.70;;;279.73;;
57231;SDS011;43488;46.934;8.276;2023-08-06T00:03:49;798.17;;;287.90;;
57231;SDS011;43488;46.934;8.276;2023-08-06T00:06:16;778.85;;;272.08;;
57231;SDS011;43488;46.934;8.276;2023-08-06T00:08:44;782.92;;;270.27;;
57231;SDS011;43488;46.934;8.276;2023-08-06T00:11:11;789.78;;;277.42;;
57231;SDS011;43488;46.934;8.276;2023-08-06T00:13:39;811.92;;;305.48;;
57231;SDS011;43488;46.934;8.276;2023-08-06T00:16:11;797.25;;;289.63;;
57231;SDS011;43488;46.934;8.276;2023-08-06T00:18:39;790.75;;;280.98;;
57231;SDS011;43488;46.934;8.276;2023-08-06T00:21:07;802.67;;;299.30;;
57231;SDS011;43488;46.934;8.276;2023-08-06T00:23:34;801.20;;;296.33;;
57231;SDS011;43488;46.934;8.276;2023-08-06T00:26:01;794.25;;;290.60;;
57231;SDS011;43488;46.934;8.276;2023-08-06T00:28:29;801.88;;;291.48;;
57231;SDS011;43488;46.934;8.276;2023-08-06T00:30:56;790.28;;;283.73;;
57231;SDS011;43488;46.934;8.276;2023-08-06T00:33:24;808.42;;;302.75;;
57231;SDS011;43488;46.934;8.276;2023-08-06T00:35:51;794.03;;;292.42;;
57231;SDS011;43488;46.934;8.276;2023-08-06T00:38:19;794.05;;;287.92;;
57231;SDS011;43488;46.934;8.276;2023-08-06T00:40:46;807.65;;;306.17;;
57231;SDS011;43488;46.934;8.276;2023-08-06T00:43:14;793.40;;;285.95;;
57231;SDS011;43488;46.934;8.276;2023-08-06T00:45:41;803.10;;;298.13;;
57231;SDS011;43488;46.934;8.276;2023-08-06T00:48:09;792.05;;;285.40;;
57231;SDS011;43488;46.934;8.276;2023-08-06T00:50:37;812.63;;;314.02;;
57231;SDS011;43488;46.934;8.276;2023-08-06T00:53:05;798.30;;;314.50;;
57231;SDS011;43488;46.934;8.276;2023-08-06T00:55:32;783.40;;;308.85;;
57231;SDS011;43488;46.934;8.276;2023-08-06T00:58:00;782.50;;;299.70;;
57231;SDS011;43488;46.934;8.276;2023-08-06T01:00:28;783.33;;;308.63;;
57231;SDS011;43488;46.934;8.276;2023-08-06T01:02:56;773.05;;;289.67;;
57231;SDS011;43488;46.934;8.276;2023-08-06T01:05:23;785.13;;;281.20;;
57231;SDS011;43488;46.934;8.276;2023-08-06T01:13:54;784.67;;;286.42;;
57231;SDS011;43488;46.934;8.276;2023-08-06T01:16:32;802.90;;;311.50;;
57231;SDS011;43488;46.934;8.276;2023-08-06T01:19:00;793.42;;;302.65;;
57231;SDS011;43488;46.934;8.276;2023-08-06T01:21:27;799.30;;;312.35;;
57231;SDS011;43488;46.934;8.276;2023-08-06T01:23:55;788.67;;;292.75;;
57231;SDS011;43488;46.934;8.276;2023-08-06T01:26:37;796.92;;;300.88;;
57231;SDS011;43488;46.934;8.276;2023-08-06T01:32:11;761.97;;;283.02;;
57231;SDS011;43488;46.934;8.276;2023-08-06T01:34:41;700.60;;;289.42;;
57231;SDS011;43488;46.934;8.276;2023-08-06T01:37:11;730.78;;;311.20;;
57231;SDS011;43488;46.934;8.276;2023-08-06T01:39:42;774.22;;;303.17;;
57231;SDS011;43488;46.934;8.276;2023-08-06T01:42:11;744.45;;;304.70;;
57231;SDS011;43488;46.934;8.276;2023-08-06T01:44:39;753.95;;;308.23;;
57231;SDS011;43488;46.934;8.276;2023-08-06T01:47:06;770.13;;;313.98;;
57231;SDS011;43488;46.934;8.276;2023-08-06T01:49:33;705.55;;;286.50;;
57231;SDS011;43488;46.934;8.276;2023-08-06T01:52:01;758.50;;;298.88;;
57231;SDS011;43488;46.934;8.276;2023-08-06T01:54:28;735.47;;;304.15;;
57231;SDS011;43488;46.934;8.276;2023-08-06T01:56:56;747.17;;;300.45;;
57231;SDS011;43488;46.934;8.276;2023-08-06T02:01:52;672.67;;;300.48;;
57231;SDS011;43488;46.934;8.276;2023-08-06T02:04:20;748.80;;;301.52;;
57231;SDS011;43488;46.934;8.276;2023-08-06T02:06:47;791.00;;;317.60;;
57231;SDS011;43488;46.934;8.276;2023-08-06T02:09:14;780.80;;;301.70;;
57231;SDS011;43488;46.934;8.276;2023-08-06T02:11:41;773.28;;;301.75;;
57231;SDS011;43488;46.934;8.276;2023-08-06T02:14:09;765.40;;;297.63;;
57231;SDS011;43488;46.934;8.276;2023-08-06T02:16:36;753.45;;;292.90;;
57231;SDS011;43488;46.934;8.276;2023-08-06T02:19:03;772.50;;;300.00;;
57231;SDS011;43488;46.934;8.276;2023-08-06T02:21:30;766.13;;;246.15;;
57231;SDS011;43488;46.934;8.276;2023-08-06T02:23:58;780.20;;;265.65;;
57231;SDS011;43488;46.934;8.276;2023-08-06T02:26:26;784.90;;;296.67;;
57231;SDS011;43488;46.934;8.276;2023-08-06T02:28:53;801.20;;;292.73;;
57231;SDS011;43488;46.934;8.276;2023-08-06T02:31:20;722.95;;;242.73;;
57231;SDS011;43488;46.934;8.276;2023-08-06T02:33:47;545.55;;;286.63;;
57231;SDS011;43488;46.934;8.276;2023-08-06T02:36:15;593.33;;;250.55;;
57231;SDS011;43488;46.934;8.276;2023-08-06T02:38:42;538.03;;;261.17;;
57231;SDS011;43488;46.934;8.276;2023-08-06T02:41:09;578.33;;;246.30;;
57231;SDS011;43488;46.934;8.276;2023-08-06T02:43:42;558.88;;;328.92;;
57231;SDS011;43488;46.934;8.276;2023-08-06T02:46:10;573.77;;;340.50;;
57231;SDS011;43488;46.934;8.276;2023-08-06T02:48:38;561.85;;;335.55;;
57231;SDS011;43488;46.934;8.276;2023-08-06T02:51:05;540.15;;;310.33;;
57231;SDS011;43488;46.934;8.276;2023-08-06T02:53:32;559.63;;;338.65;;
57231;SDS011;43488;46.934;8.276;2023-08-06T02:56:00;548.50;;;321.65;;
57231;SDS011;43488;46.934;8.276;2023-08-06T02:58:27;568.25;;;238.93;;
57231;SDS011;43488;46.934;8.276;2023-08-06T03:01:03;567.28;;;234.10;;
57231;SDS011;43488;46.934;8.276;2023-08-06T03:03:31;551.67;;;316.55;;
57231;SDS011;43488;46.934;8.276;2023-08-06T03:05:59;576.58;;;249.27;;
57231;SDS011;43488;46.934;8.276;2023-08-06T03:08:28;565.60;;;231.63;;
57231;SDS011;43488;46.934;8.276;2023-08-06T03:10:55;565.80;;;336.85;;
57231;SDS011;43488;46.934;8.276;2023-08-06T03:13:22;571.35;;;243.07;;
57231;SDS011;43488;46.934;8.276;2023-08-06T03:15:54;546.03;;;327.67;;
57231;SDS011;43488;46.934;8.276;2023-08-06T03:18:24;574.25;;;257.50;;
57231;SDS011;43488;46.934;8.276;2023-08-06T03:20:55;544.33;;;325.38;;
57231;SDS011;43488;46.934;8.276;2023-08-06T03:23:23;580.38;;;272.30;;
57231;SDS011;43488;46.934;8.276;2023-08-06T03:25:51;555.05;;;332.05;;
57231;SDS011;43488;46.934;8.276;2023-08-06T03:28:18;564.45;;;347.13;;
57231;SDS011;43488;46.934;8.276;2023-08-06T03:30:45;550.33;;;329.88;;
57231;SDS011;43488;46.934;8.276;2023-08-06T03:33:12;568.78;;;249.02;;
57231;SDS011;43488;46.934;8.276;2023-08-06T03:35:40;573.90;;;250.70;;
57231;SDS011;43488;46.934;8.276;2023-08-06T03:38:07;550.78;;;325.60;;
57231;SDS011;43488;46.934;8.276;2023-08-06T03:40:34;572.95;;;260.83;;
57231;SDS011;43488;46.934;8.276;2023-08-06T03:43:02;545.92;;;334.77;;
57231;SDS011;43488;46.934;8.276;2023-08-06T03:45:29;575.15;;;264.25;;
57231;SDS011;43488;46.934;8.276;2023-08-06T03:47:57;571.15;;;253.07;;
57231;SDS011;43488;46.934;8.276;2023-08-06T03:50:24;544.33;;;313.48;;
57231;SDS011;43488;46.934;8.276;2023-08-06T03:52:52;557.78;;;338.13;;
57231;SDS011;43488;46.934;8.276;2023-08-06T03:55:20;566.90;;;245.73;;
57231;SDS011;43488;46.934;8.276;2023-08-06T03:57:48;542.75;;;321.25;;
57231;SDS011;43488;46.934;8.276;2023-08-06T04:00:17;575.95;;;260.98;;
57231;SDS011;43488;46.934;8.276;2023-08-06T04:02:44;551.05;;;329.60;;
57231;SDS011;43488;46.934;8.276;2023-08-06T04:05:13;546.33;;;328.98;;
57231;SDS011;43488;46.934;8.276;2023-08-06T04:07:42;551.20;;;333.60;;
57231;SDS011;43488;46.934;8.276;2023-08-06T04:10:09;555.22;;;341.42;;
57231;SDS011;43488;46.934;8.276;2023-08-06T04:12:37;551.83;;;336.65;;
57231;SDS011;43488;46.934;8.276;2023-08-06T04:15:08;543.35;;;329.50;;
57231;SDS011;43488;46.934;8.276;2023-08-06T04:17:35;556.45;;;342.30;;
57231;SDS011;43488;46.934;8.276;2023-08-06T04:20:03;551.70;;;334.85;;
57231;SDS011;43488;46.934;8.276;2023-08-06T04:22:31;568.63;;;248.43;;
57231;SDS011;43488;46.934;8.276;2023-08-06T04:25:01;557.90;;;239.13;;
57231;SDS011;43488;46.934;8.276;2023-08-06T04:27:32;544.80;;;315.85;;
57231;SDS011;43488;46.934;8.276;2023-08-06T04:29:59;545.20;;;314.88;;
57231;SDS011;43488;46.934;8.276;2023-08-06T04:32:26;553.72;;;318.65;;
57231;SDS011;43488;46.934;8.276;2023-08-06T04:34:55;552.05;;;321.35;;
57231;SDS011;43488;46.934;8.276;2023-08-06T04:37:23;577.92;;;247.75;;
57231;SDS011;43488;46.934;8.276;2023-08-06T04:39:50;535.95;;;303.65;;
57231;SDS011;43488;46.934;8.276;2023-08-06T04:42:18;569.58;;;235.80;;
57231;SDS011;43488;46.934;8.276;2023-08-06T04:44:45;546.05;;;311.63;;
57231;SDS011;43488;46.934;8.276;2023-08-06T04:47:13;562.65;;;223.85;;
57231;SDS011;43488;46.934;8.276;2023-08-06T04:49:40;545.38;;;316.42;;
57231;SDS011;43488;46.934;8.276;2023-08-06T04:52:08;566.00;;;234.20;;
57231;SDS011;43488;46.934;8.276;2023-08-06T04:54:35;561.17;;;227.90;;
57231;SDS011;43488;46.934;8.276;2023-08-06T04:57:02;567.20;;;186.15;;
57231;SDS011;43488;46.934;8.276;2023-08-06T04:59:30;577.42;;;241.23;;
57231;SDS011;43488;46.934;8.276;2023-08-06T05:02:00;580.63;;;242.25;;
57231;SDS011;43488;46.934;8.276;2023-08-06T05:04:28;584.42;;;249.93;;
57231;SDS011;43488;46.934;8.276;2023-08-06T05:06:57;560.78;;;329.45;;
57231;SDS011;43488;46.934;8.276;2023-08-06T05:09:25;574.35;;;249.23;;
57231;SDS011;43488;46.934;8.276;2023-08-06T05:11:52;536.95;;;315.40;;
57231;SDS011;43488;46.934;8.276;2023-08-06T05:14:19;582.58;;;255.32;;
57231;SDS011;43488;46.934;8.276;2023-08-06T05:16:46;549.35;;;319.90;;
57231;SDS011;43488;46.934;8.276;2023-08-06T05:19:14;559.70;;;229.68;;
57231;SDS011;43488;46.934;8.276;2023-08-06T05:21:41;555.55;;;223.35;;
57231;SDS011;43488;46.934;8.276;2023-08-06T05:24:09;556.60;;;233.30;;
57231;SDS011;43488;46.934;8.276;2023-08-06T05:26:36;533.67;;;312.33;;
57231;SDS011;43488;46.934;8.276;2023-08-06T05:29:03;535.47;;;312.15;;
57231;SDS011;43488;46.934;8.276;2023-08-06T05:31:31;535.90;;;316.92;;
57231;SDS011;43488;46.934;8.276;2023-08-06T05:33:58;579.95;;;254.73;;
57231;SDS011;43488;46.934;8.276;2023-08-06T05:36:28;534.10;;;308.85;;
57231;SDS011;43488;46.934;8.276;2023-08-06T05:38:55;539.95;;;312.80;;
57231;SDS011;43488;46.934;8.276;2023-08-06T05:41:22;576.72;;;248.20;;
57231;SDS011;43488;46.934;8.276;2023-08-06T05:43:57;536.00;;;316.20;;
57231;SDS011;43488;46.934;8.276;2023-08-06T05:46:24;582.88;;;221.30;;
57231;SDS011;43488;46.934;8.276;2023-08-06T05:48:52;529.38;;;307.38;;
57231;SDS011;43488;46.934;8.276;2023-08-06T05:51:19;530.88;;;311.02;;
57231;SDS011;43488;46.934;8.276;2023-08-06T05:53:47;578.10;;;251.20;;
57231;SDS011;43488;46.934;8.276;2023-08-06T05:56:15;543.50;;;319.30;;
57231;SDS011;43488;46.934;8.276;2023-08-06T05:58:43;561.70;;;229.00;;
57231;SDS011;43488;46.934;8.276;2023-08-06T06:01:10;574.17;;;245.70;;
57231;SDS011;43488;46.934;8.276;2023-08-06T06:03:37;577.47;;;249.60;;
57231;SDS011;43488;46.934;8.276;2023-08-06T06:06:04;533.63;;;306.90;;
57231;SDS011;43488;46.934;8.276;2023-08-06T06:08:33;568.13;;;237.75;;
57231;SDS011;43488;46.934;8.276;2023-08-06T06:11:00;569.92;;;238.23;;
57231;SDS011;43488;46.934;8.276;2023-08-06T06:13:28;544.97;;;321.35;;
57231;SDS011;43488;46.934;8.276;2023-08-06T06:15:56;538.00;;;314.33;;
57231;SDS011;43488;46.934;8.276;2023-08-06T06:18:24;556.33;;;338.98;;
57231;SDS011;43488;46.934;8.276;2023-08-06T06:20:51;535.28;;;318.40;;
57231;SDS011;43488;46.934;8.276;2023-08-06T06:23:20;544.65;;;324.95;;
57231;SDS011;43488;46.934;8.276;2023-08-06T06:25:48;571.13;;;239.85;;
57231;SDS011;43488;46.934;8.276;2023-08-06T06:28:19;561.72;;;342.38;;
57231;SDS011;43488;46.934;8.276;2023-08-06T06:30:48;572.50;;;254.40;;
57231;SDS011;43488;46.934;8.276;2023-08-06T06:33:16;558.00;;;230.60;;
57231;SDS011;43488;46.934;8.276;2023-08-06T06:35:44;553.45;;;325.98;;
57231;SDS011;43488;46.934;8.276;2023-08-06T06:38:12;536.20;;;311.80;;
57231;SDS011;43488;46.934;8.276;2023-08-06T06:40:39;575.28;;;251.60;;
57231;SDS011;43488;46.934;8.276;2023-08-06T06:43:06;546.78;;;326.77;;
57231;SDS011;43488;46.934;8.276;2023-08-06T06:45:33;542.55;;;324.83;;
57231;SDS011;43488;46.934;8.276;2023-08-06T06:48:01;576.72;;;255.98;;
57231;SDS011;43488;46.934;8.276;2023-08-06T06:50:28;544.22;;;332.98;;
57231;SDS011;43488;46.934;8.276;2023-08-06T06:52:56;554.40;;;341.58;;
57231;SDS011;43488;46.934;8.276;2023-08-06T06:55:23;586.13;;;269.30;;
57231;SDS011;43488;46.934;8.276;2023-08-06T06:57:50;548.03;;;330.77;;
57231;SDS011;43488;46.934;8.276;2023-08-06T07:00:17;574.10;;;256.48;;
57231;SDS011;43488;46.934;8.276;2023-08-06T07:02:45;570.92;;;238.90;;
57231;SDS011;43488;46.934;8.276;2023-08-06T07:05:12;570.40;;;236.77;;
57231;SDS011;43488;46.934;8.276;2023-08-06T07:07:39;570.35;;;243.82;;
57231;SDS011;43488;46.934;8.276;2023-08-06T07:10:07;553.40;;;225.82;;
57231;SDS011;43488;46.934;8.276;2023-08-06T07:12:34;543.03;;;316.85;;
57231;SDS011;43488;46.934;8.276;2023-08-06T07:15:05;548.10;;;323.63;;
57231;SDS011;43488;46.934;8.276;2023-08-06T07:17:35;544.55;;;316.90;;
57231;SDS011;43488;46.934;8.276;2023-08-06T07:20:03;543.40;;;317.73;;
57231;SDS011;43488;46.934;8.276;2023-08-06T07:22:32;542.35;;;323.23;;
57231;SDS011;43488;46.934;8.276;2023-08-06T07:24:59;566.63;;;234.90;;
57231;SDS011;43488;46.934;8.276;2023-08-06T07:27:27;570.67;;;237.38;;
57231;SDS011;43488;46.934;8.276;2023-08-06T07:29:54;577.67;;;246.18;;
57231;SDS011;43488;46.934;8.276;2023-08-06T07:32:23;561.15;;;240.63;;
57231;SDS011;43488;46.934;8.276;2023-08-06T07:34:50;532.78;;;306.00;;
57231;SDS011;43488;46.934;8.276;2023-08-06T07:37:23;575.10;;;247.80;;
57231;SDS011;43488;46.934;8.276;2023-08-06T07:39:50;544.88;;;322.17;;
57231;SDS011;43488;46.934;8.276;2023-08-06T07:42:18;565.95;;;241.30;;
57231;SDS011;43488;46.934;8.276;2023-08-06T07:44:51;542.80;;;317.45;;
57231;SDS011;43488;46.934;8.276;2023-08-06T07:47:23;553.03;;;230.93;;
57231;SDS011;43488;46.934;8.276;2023-08-06T07:49:50;585.53;;;270.90;;
57231;SDS011;43488;46.934;8.276;2023-08-06T07:52:18;540.80;;;317.10;;
57231;SDS011;43488;46.934;8.276;2023-08-06T07:54:45;560.33;;;233.52;;
57231;SDS011;43488;46.934;8.276;2023-08-06T07:57:13;551.50;;;325.23;;
57231;SDS011;43488;46.934;8.276;2023-08-06T07:59:41;552.20;;;327.58;;
57231;SDS011;43488;46.934;8.276;2023-08-06T08:02:08;543.72;;;326.80;;
57231;SDS011;43488;46.934;8.276;2023-08-06T08:04:35;550.25;;;331.58;;
57231;SDS011;43488;46.934;8.276;2023-08-06T08:07:03;585.40;;;264.08;;
57231;SDS011;43488;46.934;8.276;2023-08-06T08:09:31;576.05;;;251.27;;
57231;SDS011;43488;46.934;8.276;2023-08-06T08:12:00;549.33;;;325.40;;
57231;SDS011;43488;46.934;8.276;2023-08-06T08:14:29;588.70;;;270.92;;
57231;SDS011;43488;46.934;8.276;2023-08-06T08:17:02;567.38;;;247.73;;
57231;SDS011;43488;46.934;8.276;2023-08-06T08:19:30;560.22;;;235.45;;
57231;SDS011;43488;46.934;8.276;2023-08-06T08:21:58;551.00;;;329.38;;
57231;SDS011;43488;46.934;8.276;2023-08-06T08:24:25;583.92;;;259.90;;
57231;SDS011;43488;46.934;8.276;2023-08-06T08:26:53;566.88;;;242.18;;
57231;SDS011;43488;46.934;8.276;2023-08-06T08:29:20;579.08;;;249.43;;
57231;SDS011;43488;46.934;8.276;2023-08-06T08:31:48;571.53;;;234.85;;
57231;SDS011;43488;46.934;8.276;2023-08-06T08:34:17;557.13;;;326.45;;
57231;SDS011;43488;46.934;8.276;2023-08-06T08:36:45;545.05;;;306.50;;
57231;SDS011;43488;46.934;8.276;2023-08-06T08:39:13;552.28;;;318.40;;
57231;SDS011;43488;46.934;8.276;2023-08-06T08:41:40;566.63;;;235.20;;
57231;SDS011;43488;46.934;8.276;2023-08-06T08:44:10;539.25;;;314.30;;
57231;SDS011;43488;46.934;8.276;2023-08-06T08:46:40;563.72;;;235.57;;
57231;SDS011;43488;46.934;8.276;2023-08-06T08:49:09;538.85;;;314.83;;
57231;SDS011;43488;46.934;8.276;2023-08-06T08:51:39;561.13;;;231.55;;
57231;SDS011;43488;46.934;8.276;2023-08-06T08:54:07;539.85;;;301.20;;
57231;SDS011;43488;46.934;8.276;2023-08-06T08:56:35;571.67;;;244.70;;
57231;SDS011;43488;46.934;8.276;2023-08-06T08:59:02;542.97;;;309.95;;
57231;SDS011;43488;46.934;8.276;2023-08-06T09:01:29;573.90;;;241.50;;
57231;SDS011;43488;46.934;8.276;2023-08-06T09:03:58;569.08;;;232.73;;
57231;SDS011;43488;46.934;8.276;2023-08-06T09:06:27;566.25;;;251.15;;
57231;SDS011;43488;46.934;8.276;2023-08-06T09:09:06;577.25;;;325.63;;
57231;SDS011;43488;46.934;8.276;2023-08-06T09:11:44;575.88;;;240.90;;
57231;SDS011;43488;46.934;8.276;2023-08-06T09:14:15;574.33;;;234.57;;
57231;SDS011;43488;46.934;8.276;2023-08-06T09:16:43;568.05;;;233.35;;
57231;SDS011;43488;46.934;8.276;2023-08-06T09:19:11;587.33;;;257.38;;
57231;SDS011;43488;46.934;8.276;2023-08-06T09:21:39;555.60;;;309.92;;
57231;SDS011;43488;46.934;8.276;2023-08-06T09:24:11;550.17;;;319.27;;
57231;SDS011;43488;46.934;8.276;2023-08-06T09:26:39;521.80;;;296.45;;
57231;SDS011;43488;46.934;8.276;2023-08-06T09:29:09;572.03;;;228.55;;
57231;SDS011;43488;46.934;8.276;2023-08-06T09:31:41;569.75;;;242.40;;
57231;SDS011;43488;46.934;8.276;2023-08-06T09:34:14;561.67;;;316.33;;
57231;SDS011;43488;46.934;8.276;2023-08-06T09:36:46;560.28;;;318.17;;
57231;SDS011;43488;46.934;8.276;2023-08-06T09:39:19;540.25;;;307.88;;
57231;SDS011;43488;46.934;8.276;2023-08-06T09:41:55;729.22;;;231.45;;
57231;SDS011;43488;46.934;8.276;2023-08-06T09:44:28;723.90;;;247.07;;
57231;SDS011;43488;46.934;8.276;2023-08-06T09:46:59;586.50;;;250.65;;
57231;SDS011;43488;46.934;8.276;2023-08-06T09:52:00;572.73;;;238.67;;
57231;SDS011;43488;46.934;8.276;2023-08-06T09:54:28;568.08;;;231.80;;
57231;SDS011;43488;46.934;8.276;2023-08-06T09:56:57;554.38;;;321.42;;
57231;SDS011;43488;46.934;8.276;2023-08-06T09:59:24;558.13;;;317.20;;
57231;SDS011;43488;46.934;8.276;2023-08-06T10:01:53;560.25;;;322.92;;
57231;SDS011;43488;46.934;8.276;2023-08-06T10:04:22;557.17;;;322.35;;
57231;SDS011;43488;46.934;8.276;2023-08-06T10:06:50;580.67;;;253.23;;
57231;SDS011;43488;46.934;8.276;2023-08-06T10:09:19;587.65;;;265.50;;
57231;SDS011;43488;46.934;8.276;2023-08-06T10:11:49;572.33;;;358.08;;
57231;SDS011;43488;46.934;8.276;2023-08-06T10:16:52;546.47;;;325.67;;
57231;SDS011;43488;46.934;8.276;2023-08-06T10:19:20;591.38;;;270.27;;
57231;SDS011;43488;46.934;8.276;2023-08-06T10:27:33;578.53;;;257.83;;
57231;SDS011;43488;46.934;8.276;2023-08-06T10:30:26;561.05;;;333.27;;
57231;SDS011;43488;46.934;8.276;2023-08-06T10:38:05;561.60;;;328.73;;
57231;SDS011;43488;46.934;8.276;2023-08-06T10:46:01;583.00;;;257.98;;
57231;SDS011;43488;46.934;8.276;2023-08-06T10:51:11;594.33;;;265.60;;
57231;SDS011;43488;46.934;8.276;2023-08-06T10:53:43;590.22;;;260.15;;
57231;SDS011;43488;46.934;8.276;2023-08-06T10:56:13;585.67;;;259.80;;
57231;SDS011;43488;46.934;8.276;2023-08-06T10:58:42;566.50;;;335.38;;
57231;SDS011;43488;46.934;8.276;2023-08-06T11:01:13;580.72;;;244.52;;
57231;SDS011;43488;46.934;8.276;2023-08-06T11:03:42;580.38;;;245.27;;
57231;SDS011;43488;46.934;8.276;2023-08-06T11:06:16;581.03;;;249.27;;
57231;SDS011;43488;46.934;8.276;2023-08-06T11:08:49;591.33;;;265.17;;
57231;SDS011;43488;46.934;8.276;2023-08-06T11:11:21;597.13;;;275.33;;
57231;SDS011;43488;46.934;8.276;2023-08-06T11:13:50;586.97;;;258.05;;
57231;SDS011;43488;46.934;8.276;2023-08-06T11:16:22;562.92;;;323.70;;
57231;SDS011;43488;46.934;8.276;2023-08-06T11:18:53;550.92;;;318.48;;
57231;SDS011;43488;46.934;8.276;2023-08-06T11:21:22;579.00;;;252.50;;
57231;SDS011;43488;46.934;8.276;2023-08-06T11:23:55;588.53;;;257.45;;
57231;SDS011;43488;46.934;8.276;2023-08-06T11:26:23;578.70;;;249.77;;
57231;SDS011;43488;46.934;8.276;2023-08-06T11:28:50;597.38;;;285.73;;
57231;SDS011;43488;46.934;8.276;2023-08-06T11:31:18;592.20;;;261.77;;
57231;SDS011;43488;46.934;8.276;2023-08-06T11:36:28;551.33;;;318.50;;
57231;SDS011;43488;46.934;8.276;2023-08-06T11:39:02;565.72;;;348.92;;
57231;SDS011;43488;46.934;8.276;2023-08-06T11:41:33;557.87;;;317.67;;
57231;SDS011;43488;46.934;8.276;2023-08-06T11:44:04;568.08;;;328.75;;
57231;SDS011;43488;46.934;8.276;2023-08-06T11:55:02;557.35;;;326.10;;
57231;SDS011;43488;46.934;8.276;2023-08-06T11:57:43;573.92;;;247.85;;
57231;SDS011;43488;46.934;8.276;2023-08-06T12:00:13;574.28;;;343.95;;
57231;SDS011;43488;46.934;8.276;2023-08-06T12:02:41;570.15;;;339.67;;
57231;SDS011;43488;46.934;8.276;2023-08-06T12:05:11;564.03;;;332.67;;
57231;SDS011;43488;46.934;8.276;2023-08-06T12:07:57;554.65;;;321.13;;
57231;SDS011;43488;46.934;8.276;2023-08-06T12:10:27;564.97;;;337.20;;
57231;SDS011;43488;46.934;8.276;2023-08-06T12:12:57;572.70;;;348.15;;
57231;SDS011;43488;46.934;8.276;2023-08-06T12:15:25;585.35;;;255.43;;
57231;SDS011;43488;46.934;8.276;2023-08-06T12:17:54;581.47;;;260.95;;
57231;SDS011;43488;46.934;8.276;2023-08-06T12:20:22;579.17;;;256.40;;
57231;SDS011;43488;46.934;8.276;2023-08-06T12:22:51;589.45;;;275.20;;
57231;SDS011;43488;46.934;8.276;2023-08-06T12:25:19;573.22;;;345.45;;
57231;SDS011;43488;46.934;8.276;2023-08-06T12:27:46;569.17;;;341.98;;
57231;SDS011;43488;46.934;8.276;2023-08-06T12:30:14;595.33;;;271.92;;
57231;SDS011;43488;46.934;8.276;2023-08-06T12:32:41;578.88;;;257.80;;
57231;SDS011;43488;46.934;8.276;2023-08-06T12:35:08;589.90;;;265.65;;
57231;SDS011;43488;46.934;8.276;2023-08-06T12:37:37;592.03;;;277.33;;
57231;SDS011;43488;46.934;8.276;2023-08-06T12:40:09;566.67;;;336.40;;
57231;SDS011;43488;46.934;8.276;2023-08-06T12:42:37;568.60;;;343.08;;
57231;SDS011;43488;46.934;8.276;2023-08-06T12:45:05;580.15;;;259.67;;
57231;SDS011;43488;46.934;8.276;2023-08-06T12:47:32;588.92;;;259.65;;
57231;SDS011;43488;46.934;8.276;2023-08-06T12:49:59;569.75;;;341.70;;
57231;SDS011;43488;46.934;8.276;2023-08-06T12:52:27;592.88;;;275.27;;
57231;SDS011;43488;46.934;8.276;2023-08-06T12:54:54;567.58;;;330.13;;
57231;SDS011;43488;46.934;8.276;2023-08-06T12:57:21;562.00;;;320.25;;
57231;SDS011;43488;46.934;8.276;2023-08-06T12:59:49;565.53;;;326.25;;
57231;SDS011;43488;46.934;8.276;2023-08-06T13:02:16;605.38;;;272.88;;
57231;SDS011;43488;46.934;8.276;2023-08-06T13:04:43;558.70;;;326.50;;
57231;SDS011;43488;46.934;8.276;2023-08-06T13:07:12;569.40;;;329.58;;
57231;SDS011;43488;46.934;8.276;2023-08-06T13:09:41;584.05;;;248.23;;
57231;SDS011;43488;46.934;8.276;2023-08-06T13:12:09;599.35;;;254.02;;
57231;SDS011;43488;46.934;8.276;2023-08-06T13:14:36;562.05;;;315.70;;
57231;SDS011;43488;46.934;8.276;2023-08-06T13:17:03;612.25;;;343.13;;
57231;SDS011;43488;46.934;8.276;2023-08-06T13:19:33;626.55;;;257.23;;
57231;SDS011;43488;46.934;8.276;2023-08-06T13:22:02;585.40;;;247.35;;
57231;SDS011;43488;46.934;8.276;2023-08-06T13:26:59;582.58;;;344.02;;
57231;SDS011;43488;46.934;8.276;2023-08-06T13:29:27;618.00;;;387.43;;
57231;SDS011;43488;46.934;8.276;2023-08-06T13:31:55;569.75;;;333.52;;
57231;SDS011;43488;46.934;8.276;2023-08-06T13:34:22;581.90;;;343.80;;
57231;SDS011;43488;46.934;8.276;2023-08-06T13:36:50;582.95;;;247.23;;
57231;SDS011;43488;46.934;8.276;2023-08-06T13:39:18;585.95;;;360.13;;
57231;SDS011;43488;46.934;8.276;2023-08-06T13:41:46;576.50;;;346.00;;
57231;SDS011;43488;46.934;8.276;2023-08-06T13:44:13;575.03;;;347.40;;
57231;SDS011;43488;46.934;8.276;2023-08-06T13:46:41;581.28;;;357.23;;
57231;SDS011;43488;46.934;8.276;2023-08-06T13:49:08;575.88;;;349.55;;
57231;SDS011;43488;46.934;8.276;2023-08-06T13:51:36;595.75;;;286.80;;
57231;SDS011;43488;46.934;8.276;2023-08-06T13:54:04;608.80;;;300.00;;
57231;SDS011;43488;46.934;8.276;2023-08-06T13:56:33;579.00;;;359.27;;
57231;SDS011;43488;46.934;8.276;2023-08-06T13:59:02;592.08;;;265.17;;
57231;SDS011;43488;46.934;8.276;2023-08-06T14:01:29;606.45;;;281.60;;
57231;SDS011;43488;46.934;8.276;2023-08-06T14:03:56;595.65;;;260.73;;
57231;SDS011;43488;46.934;8.276;2023-08-06T14:06:23;597.63;;;265.27;;
57231;SDS011;43488;46.934;8.276;2023-08-06T14:08:51;752.40;;;321.08;;
57231;SDS011;43488;46.934;8.276;2023-08-06T14:11:18;782.03;;;326.85;;
57231;SDS011;43488;46.934;8.276;2023-08-06T14:13:45;597.53;;;299.58;;
57231;SDS011;43488;46.934;8.276;2023-08-06T14:16:13;802.63;;;317.20;;
57231;SDS011;43488;46.934;8.276;2023-08-06T14:18:40;785.70;;;324.98;;
57231;SDS011;43488;46.934;8.276;2023-08-06T14:21:08;800.33;;;335.27;;
57231;SDS011;43488;46.934;8.276;2023-08-06T14:23:36;808.85;;;332.20;;
57231;SDS011;43488;46.934;8.276;2023-08-06T14:26:03;791.38;;;327.00;;
57231;SDS011;43488;46.934;8.276;2023-08-06T14:28:30;789.83;;;323.50;;
57231;SDS011;43488;46.934;8.276;2023-08-06T14:30:58;802.88;;;324.08;;
57231;SDS011;43488;46.934;8.276;2023-08-06T14:33:27;802.97;;;315.90;;
57231;SDS011;43488;46.934;8.276;2023-08-06T14:35:54;692.33;;;294.38;;
57231;SDS011;43488;46.934;8.276;2023-08-06T14:38:21;772.83;;;278.77;;
57231;SDS011;43488;46.934;8.276;2023-08-06T14:40:48;778.30;;;274.60;;
57231;SDS011;43488;46.934;8.276;2023-08-06T14:43:17;551.20;;;315.27;;
57231;SDS011;43488;46.934;8.276;2023-08-06T14:45:45;567.45;;;323.05;;
57231;SDS011;43488;46.934;8.276;2023-08-06T14:48:12;578.45;;;239.00;;
57231;SDS011;43488;46.934;8.276;2023-08-06T14:50:40;563.40;;;312.30;;
57231;SDS011;43488;46.934;8.276;2023-08-06T14:53:09;586.35;;;341.75;;